メインページ
METAR-TAF:

METAR-TAF

空港 :

リスト・フェレンツ国際空港

ブダペスト, ハンガリー

緯度: 47-26N, 経度: 019-16E, 海抜: 151m

現時点の気象観測

当レポートは2時間44分前の10:00(UTC)に作成
の風 11kt
気温 16°C
湿度 20%
気圧 1033 hPa
視程10km以上
1,500メートル以下は雲なし、積乱雲なし

METAR: LHBP 061000Z 18011KT CAVOK 16/M07 Q1033 NOSIG

時間: 14:44 (12:44 UTC)

予報

当レポートは1時間29分前の11:15(UTC)に作成
予報は06日の 12時(UTC)から 07日の 12時(UTC)まで有効
南/南東の風 8kt、最大18ktの突風を伴う
視程10km以上
1,500メートル以下は雲なし、積乱雲なし
06日の 14時(UTC)から 06日の 16時(UTC)まで徐々に
東/南東の風 5kt
06日の 18時(UTC)から 06日の 20時(UTC)まで徐々に
変向風 3kt
07日の 07時(UTC)から 07日の 09時(UTC)まで徐々に
の風 5kt

TAF: LHBP 061115Z 0612/0712 15008G18KT CAVOK BECMG 0614/0616 11005KT BECMG 0618/0620 VRB03KT BECMG 0707/0709 18005KT

4,000以上の空港の気象観測と天気予報(METAR報とTAF報)

利用可能な観測所は地図上に黄色い丸と赤い丸で示す。

丸の上にカーソルを重ねると観測所名を参照できる。

次にクリックすると気象観測と天気予報を参照できる。

マップの切り替え:黒色「×」印の緑ボタンをクリックして拡大、「-」印の緑ボタンをクリックして縮小、緑色の三角印をクリックして隣りの地図に切り替え


METAR-TAF: